Time;durP1;ratioP1;P1;durP2;ratioP2;P2;SDS_P1;SDS_P2;PMS_P1;PMS_P2;Temp;Humidity;BMP_temperature;BMP_pressure;BME280_temperature;BME280_humidity;BME280_pressure;Samples;Min_cycle;Max_cycle;Signal;HPM_P1;HPM_P2
2024/03/28 00:02:10;;;;;;;18.92;7.38;;;384.20;2329.60;;;;;;5096896;28;20051;-72
2024/03/28 00:04:36;;;;;;;20.35;6.30;;;384.20;2329.60;;;;;;5086875;28;20028;-71
2024/03/28 00:07:02;;;;;;;24.17;6.53;;;384.20;2329.60;;;;;;5090661;28;20020;-72
2024/03/28 00:09:29;;;;;;;28.15;8.15;;;384.20;2329.60;;;;;;5093389;28;20035;-72
2024/03/28 00:11:55;;;;;;;24.85;6.95;;;384.20;2329.60;;;;;;5096566;28;20020;-72
2024/03/28 00:14:21;;;;;;;14.55;6.38;;;384.20;2329.60;;;;;;5091492;28;20036;-72
2024/03/28 00:16:47;;;;;;;25.50;6.43;;;384.20;2329.60;;;;;;5097336;28;20016;-72
2024/03/28 00:19:13;;;;;;;22.83;7.88;;;384.20;2329.60;;;;;;5094224;28;20070;-73
2024/03/28 00:21:39;;;;;;;22.90;7.57;;;384.20;2329.60;;;;;;5085600;28;20028;-73
2024/03/28 00:24:05;;;;;;;27.05;8.18;;;384.10;2329.60;;;;;;5088440;28;20027;-74
2024/03/28 00:26:31;;;;;;;20.35;7.05;;;384.10;2329.60;;;;;;5110703;28;20103;-74
2024/03/28 00:28:57;;;;;;;23.50;7.72;;;384.10;2329.60;;;;;;5097866;28;20115;-72
2024/03/28 00:31:23;;;;;;;17.23;7.78;;;384.10;2329.60;;;;;;5096258;28;20069;-72
2024/03/28 00:33:49;;;;;;;16.23;7.70;;;384.10;2329.60;;;;;;5098625;28;20016;-73
2024/03/28 00:36:15;;;;;;;16.75;7.07;;;384.10;2329.60;;;;;;5090141;28;20089;-72
2024/03/28 00:38:42;;;;;;;24.85;8.38;;;384.10;2329.60;;;;;;5089211;28;20024;-72
2024/03/28 00:41:09;;;;;;;19.58;8.75;;;384.10;2329.60;;;;;;5095773;28;20035;-75
2024/03/28 00:43:35;;;;;;;18.67;7.78;;;384.10;2329.60;;;;;;5091922;28;20453;-74
2024/03/28 00:46:01;;;;;;;30.77;7.10;;;384.10;2329.60;;;;;;5084730;28;20101;-73
2024/03/28 00:48:27;;;;;;;23.13;8.55;;;384.10;2329.60;;;;;;5090238;28;20032;-72
2024/03/28 00:50:58;;;;;;;17.67;7.50;;;384.10;2329.60;;;;;;5089977;28;20170;-72
2024/03/28 00:53:24;;;;;;;18.02;7.28;;;384.10;2329.60;;;;;;5095423;28;20020;-72
2024/03/28 00:55:51;;;;;;;19.30;7.63;;;384.00;2329.60;;;;;;5084634;28;20023;-72
2024/03/28 00:58:17;;;;;;;21.55;8.05;;;384.00;2329.60;;;;;;5089552;28;20032;-72
2024/03/28 01:00:45;;;;;;;21.00;7.40;;;384.10;2329.60;;;;;;5092566;28;20032;-73
2024/03/28 01:03:11;;;;;;;19.10;7.88;;;384.00;2329.60;;;;;;5084226;28;20024;-73
2024/03/28 01:05:37;;;;;;;20.17;8.55;;;384.10;2329.60;;;;;;5097971;28;20028;-72
2024/03/28 01:08:04;;;;;;;19.40;9.60;;;384.10;2329.60;;;;;;5099254;28;20048;-73
2024/03/28 01:10:30;;;;;;;24.02;7.65;;;384.10;2329.60;;;;;;5083352;28;20040;-76
2024/03/28 01:12:55;;;;;;;24.58;9.07;;;384.10;2329.60;;;;;;5098791;28;20047;-72
2024/03/28 01:15:21;;;;;;;16.88;7.72;;;384.00;2329.60;;;;;;5100653;28;20038;-73
2024/03/28 01:17:47;;;;;;;20.63;8.00;;;384.00;2329.60;;;;;;5098003;28;20089;-72
2024/03/28 01:20:13;;;;;;;22.73;8.75;;;384.00;2329.60;;;;;;5093603;28;20490;-72
2024/03/28 01:22:39;;;;;;;20.48;9.27;;;384.00;2329.60;;;;;;5095633;28;20040;-72
2024/03/28 01:25:07;;;;;;;20.58;7.72;;;384.00;2329.60;;;;;;5104079;28;20039;-73
2024/03/28 01:27:35;;;;;;;28.17;8.90;;;384.00;2329.60;;;;;;5102409;28;20021;-72
2024/03/28 01:30:03;;;;;;;19.65;8.18;;;384.10;2329.60;;;;;;5088512;28;20047;-72
2024/03/28 01:32:29;;;;;;;20.13;8.02;;;384.10;2329.60;;;;;;5090062;28;20023;-72
2024/03/28 01:34:55;;;;;;;19.60;7.28;;;384.20;2329.60;;;;;;5093095;28;20060;-72
2024/03/28 01:37:21;;;;;;;27.02;11.32;;;384.20;2329.60;;;;;;5082606;28;20544;-72
2024/03/28 01:39:50;;;;;;;18.63;8.88;;;359.30;2329.60;;;;;;5088694;28;20036;-73
2024/03/28 01:42:16;;;;;;;23.85;11.90;;;358.90;2329.60;;;;;;5093202;28;20017;-74
2024/03/28 01:44:42;;;;;;;26.05;12.07;;;358.80;2329.60;;;;;;5090236;28;20116;-73
2024/03/28 01:47:08;;;;;;;29.30;12.23;;;358.70;2329.60;;;;;;5094058;28;20031;-74
2024/03/28 01:49:36;;;;;;;35.25;14.10;;;358.60;2150.40;;;;;;5094515;28;20374;-73
2024/03/28 01:52:03;;;;;;;32.75;13.80;;;358.50;2329.60;;;;;;5089510;28;20016;-73
2024/03/28 01:54:34;;;;;;;32.30;13.90;;;333.70;2329.60;;;;;;5078811;28;20017;-73
2024/03/28 01:57:02;;;;;;;27.00;12.57;;;333.60;2329.60;;;;;;5088769;28;20040;-73
2024/03/28 01:59:29;;;;;;;28.85;13.18;;;333.60;2329.60;;;;;;5090272;28;20404;-72
2024/03/28 02:01:57;;;;;;;27.60;12.48;;;333.70;2329.60;;;;;;5097182;28;20111;-73
2024/03/28 02:04:25;;;;;;;29.00;13.10;;;358.40;2329.60;;;;;;5096544;28;20024;-72
2024/03/28 02:06:51;;;;;;;36.05;13.48;;;358.50;2329.60;;;;;;5086856;28;20081;-72
2024/03/28 02:09:18;;;;;;;38.53;13.43;;;358.70;2329.60;;;;;;5099274;28;20074;-72
2024/03/28 02:11:44;;;;;;;34.50;13.98;;;358.80;2329.60;;;;;;5083909;28;20015;-72
2024/03/28 02:14:10;;;;;;;36.05;14.85;;;358.70;2329.60;;;;;;5099600;28;20035;-74
2024/03/28 02:16:38;;;;;;;32.72;14.00;;;358.70;2329.60;;;;;;5100736;28;20074;-72
2024/03/28 02:19:04;;;;;;;40.00;13.63;;;358.80;2329.60;;;;;;5070741;28;20046;-73
2024/03/28 02:21:30;;;;;;;26.95;14.13;;;358.50;2329.60;;;;;;5092345;28;20073;-73
2024/03/28 02:23:56;;;;;;;31.13;12.82;;;358.90;2329.60;;;;;;5087926;28;20042;-72
2024/03/28 02:26:24;;;;;;;39.67;14.20;;;358.50;2329.60;;;;;;5102193;28;20085;-73
2024/03/28 02:28:51;;;;;;;42.40;14.15;;;358.50;2329.60;;;;;;5093806;28;20024;-73
2024/03/28 02:31:17;;;;;;;32.05;12.60;;;358.40;2329.60;;;;;;5091358;28;20032;-73
2024/03/28 02:33:43;;;;;;;23.42;12.27;;;358.40;2329.60;;;;;;5087055;28;20501;-77
2024/03/28 02:36:09;;;;;;;30.35;13.52;;;333.70;2329.60;;;;;;5088839;28;20024;-73
2024/03/28 02:38:35;;;;;;;36.90;15.07;;;333.60;2329.60;;;;;;5089001;28;20021;-72
2024/03/28 02:41:01;;;;;;;42.42;15.40;;;333.70;2329.60;;;;;;5089870;28;20493;-72
2024/03/28 02:43:29;;;;;;;39.28;15.32;;;358.40;2329.60;;;;;;5091871;28;20107;-73
2024/03/28 02:45:55;;;;;;;40.58;15.30;;;358.50;2329.60;;;;;;5089950;28;20047;-73
2024/03/28 02:48:21;;;;;;;34.75;14.93;;;358.40;2329.60;;;;;;5089587;28;20059;-73
2024/03/28 02:50:47;;;;;;;36.13;15.32;;;333.70;2329.60;;;;;;5089195;28;20081;-73
2024/03/28 02:53:13;;;;;;;33.97;14.00;;;333.70;2329.60;;;;;;5086680;28;20127;-73
2024/03/28 02:55:39;;;;;;;37.42;14.43;;;333.60;2329.60;;;;;;5095334;28;20040;-73
2024/03/28 02:58:05;;;;;;;36.28;13.80;;;333.70;2329.60;;;;;;5089310;28;20027;-73
2024/03/28 03:00:31;;;;;;;34.58;14.35;;;358.70;2329.60;;;;;;5084371;28;20042;-74
2024/03/28 03:03:00;;;;;;;29.17;12.98;;;333.50;2329.60;;;;;;5095165;28;20019;-73
2024/03/28 03:05:26;;;;;;;24.38;13.43;;;333.40;2329.60;;;;;;5092425;28;20028;-73
2024/03/28 03:07:51;;;;;;;27.42;13.00;;;333.40;2329.60;;;;;;5090161;28;20256;-73
2024/03/28 03:10:17;;;;;;;40.78;15.25;;;333.40;2329.60;;;;;;5079305;28;20028;-73
2024/03/28 03:12:43;;;;;;;28.77;14.95;;;333.20;2329.60;;;;;;5089133;28;20047;-74
2024/03/28 03:15:09;;;;;;;31.50;15.23;;;333.20;2329.60;;;;;;5075810;28;20481;-73
2024/03/28 03:17:36;;;;;;;30.13;14.88;;;333.10;2329.60;;;;;;5099556;28;20035;-74
2024/03/28 03:20:07;;;;;;;25.88;14.25;;;333.10;2329.60;;;;;;5090655;28;20508;-73
2024/03/28 03:22:37;;;;;;;39.05;16.95;;;333.00;2329.60;;;;;;5092591;28;20025;-73
2024/03/28 03:25:11;;;;;;;37.50;15.98;;;333.00;2329.60;;;;;;5100610;28;20035;-73
2024/03/28 03:34:34;;;;;;;30.17;16.40;;;333.00;2329.60;;;;;;5092860;28;20058;-73
2024/03/28 03:35:54;;;;;;;27.25;14.75;;;333.20;2329.60;;;;;;5084721;28;20082;-73
2024/03/28 03:38:20;;;;;;;34.47;15.15;;;333.20;2329.60;;;;;;5077532;28;20111;-73
2024/03/28 03:40:46;;;;;;;24.67;14.05;;;333.20;2329.60;;;;;;5089515;28;20059;-74
2024/03/28 03:43:12;;;;;;;25.58;14.05;;;333.20;2329.60;;;;;;5096872;28;20058;-74
2024/03/28 03:45:37;;;;;;;29.80;14.63;;;333.20;2329.60;;;;;;5099707;28;20024;-73
2024/03/28 03:48:03;;;;;;;29.90;13.52;;;333.20;2329.60;;;;;;5100385;28;20020;-73
2024/03/28 03:50:29;;;;;;;27.45;14.23;;;333.30;2329.60;;;;;;5095530;28;20421;-73
2024/03/28 03:52:58;;;;;;;39.53;14.90;;;333.40;2329.60;;;;;;5094437;28;20386;-74
2024/03/28 03:55:23;;;;;;;35.53;14.32;;;333.40;2329.60;;;;;;5091243;28;20036;-73
2024/03/28 03:57:49;;;;;;;35.08;14.68;;;333.40;2329.60;;;;;;5100542;28;20465;-75
2024/03/28 04:00:15;;;;;;;33.13;15.50;;;333.50;2329.60;;;;;;5092799;28;20024;-76
2024/03/28 04:02:41;;;;;;;34.45;14.77;;;333.50;2329.60;;;;;;5096332;28;20055;-75
2024/03/28 04:05:07;;;;;;;27.50;10.75;;;333.60;2329.60;;;;;;5088109;28;20508;-74
2024/03/28 04:07:33;;;;;;;28.80;9.20;;;333.60;2329.60;;;;;;5099991;28;20768;-74
2024/03/28 04:09:59;;;;;;;34.67;12.88;;;333.60;2329.60;;;;;;5095940;28;20406;-74
2024/03/28 04:12:25;;;;;;;23.50;10.73;;;333.70;2329.60;;;;;;5100506;28;20038;-74
2024/03/28 04:14:50;;;;;;;26.50;9.50;;;333.70;2329.60;;;;;;5087386;28;20020;-74
2024/03/28 04:17:18;;;;;;;25.52;9.93;;;333.70;2329.60;;;;;;5097042;28;20078;-75
2024/03/28 04:19:44;;;;;;;21.77;8.23;;;333.70;2329.60;;;;;;5084475;28;20070;-75
2024/03/28 04:22:11;;;;;;;17.17;7.00;;;358.40;2329.60;;;;;;5091222;28;20032;-74
2024/03/28 04:24:37;;;;;;;18.08;7.90;;;358.40;2329.60;;;;;;5082463;28;20024;-74
2024/03/28 04:27:03;;;;;;;13.63;5.80;;;358.40;2329.60;;;;;;5093498;28;20035;-75
2024/03/28 04:29:29;;;;;;;14.27;5.97;;;358.60;2329.60;;;;;;5101851;28;20106;-73
2024/03/28 04:31:55;;;;;;;15.93;4.45;;;358.50;2329.60;;;;;;5098225;28;20456;-73
2024/03/28 04:34:23;;;;;;;13.75;4.45;;;358.50;2329.60;;;;;;5088694;28;20117;-74
2024/03/28 04:36:49;;;;;;;11.45;4.28;;;358.50;2329.60;;;;;;5092602;28;20019;-74
2024/03/28 04:39:15;;;;;;;11.65;3.10;;;358.50;2329.60;;;;;;5102162;28;20022;-73
2024/03/28 04:41:41;;;;;;;12.23;2.83;;;358.50;2329.60;;;;;;5105274;28;20020;-73
2024/03/28 04:44:07;;;;;;;7.10;2.13;;;358.50;2329.60;;;;;;5094405;28;20023;-74
2024/03/28 04:46:33;;;;;;;8.82;2.67;;;358.50;2329.60;;;;;;5084720;28;20047;-73
2024/03/28 04:48:58;;;;;;;10.05;2.90;;;358.50;2329.60;;;;;;5103595;28;20024;-73
2024/03/28 04:51:26;;;;;;;7.43;2.05;;;358.50;2329.60;;;;;;5075518;28;20051;-73
2024/03/28 04:53:51;;;;;;;5.55;2.17;;;358.50;2329.60;;;;;;5099492;28;20036;-73
2024/03/28 04:56:17;;;;;;;5.18;2.00;;;358.50;2329.60;;;;;;5105561;28;20036;-73
2024/03/28 04:58:43;;;;;;;6.72;2.58;;;358.40;2329.60;;;;;;5097895;28;20027;-73
2024/03/28 05:01:09;;;;;;;4.80;1.58;;;358.40;2329.60;;;;;;5091936;28;20496;-74
2024/03/28 05:03:36;;;;;;;7.63;1.75;;;358.40;2329.60;;;;;;5098111;28;20396;-75
2024/03/28 05:06:02;;;;;;;9.60;1.90;;;358.50;2329.60;;;;;;5092002;28;20040;-74
2024/03/28 05:08:28;;;;;;;5.30;1.55;;;358.40;2329.60;;;;;;5096313;28;20024;-73
2024/03/28 05:10:54;;;;;;;8.68;1.90;;;358.50;2329.60;;;;;;5096664;28;20493;-75
2024/03/28 05:13:19;;;;;;;11.65;1.70;;;358.40;2329.60;;;;;;5095707;28;20036;-73
2024/03/28 05:15:45;;;;;;;4.97;1.38;;;358.40;2329.60;;;;;;5098529;28;20484;-72
2024/03/28 05:18:11;;;;;;;8.43;1.83;;;358.40;2329.60;;;;;;5089123;28;20021;-72
2024/03/28 05:20:37;;;;;;;7.82;1.77;;;358.40;2329.60;;;;;;5081757;28;20029;-73
2024/03/28 05:23:03;;;;;;;5.70;2.40;;;358.50;2329.60;;;;;;5092185;28;20024;-73
2024/03/28 05:25:29;;;;;;;3.55;1.58;;;358.50;2329.60;;;;;;5091647;28;20036;-73
2024/03/28 05:27:54;;;;;;;6.43;1.85;;;358.40;2329.60;;;;;;5087112;28;20020;-73
2024/03/28 05:30:20;;;;;;;3.60;1.25;;;358.50;2329.60;;;;;;5086667;28;20465;-73
2024/03/28 05:32:46;;;;;;;8.15;1.50;;;358.50;2329.60;;;;;;5085598;28;20039;-73
2024/03/28 05:35:12;;;;;;;9.25;1.55;;;358.40;2329.60;;;;;;5091098;28;20055;-74
2024/03/28 05:37:38;;;;;;;8.18;2.25;;;333.70;2329.60;;;;;;5090318;28;20470;-73
2024/03/28 05:40:04;;;;;;;5.70;1.55;;;333.70;2329.60;;;;;;5090508;28;20020;-73
2024/03/28 05:42:30;;;;;;;7.47;1.83;;;333.70;2329.60;;;;;;5097571;28;20020;-72
2024/03/28 05:44:56;;;;;;;6.22;2.05;;;333.70;2329.60;;;;;;5091849;28;20027;-73
2024/03/28 05:47:21;;;;;;;8.00;2.88;;;333.70;2329.60;;;;;;5096554;28;20020;-73
2024/03/28 05:49:47;;;;;;;7.90;2.03;;;358.40;2329.60;;;;;;5082242;28;20054;-73
2024/03/28 05:52:13;;;;;;;7.75;3.40;;;358.40;2329.60;;;;;;5095703;28;20024;-73
2024/03/28 05:54:40;;;;;;;9.15;3.30;;;333.70;2329.60;;;;;;5091096;28;20150;-73
2024/03/28 05:57:06;;;;;;;10.13;3.30;;;333.70;2329.60;;;;;;5097703;28;20089;-73
2024/03/28 05:59:32;;;;;;;8.60;3.00;;;333.70;2329.60;;;;;;5088628;28;20099;-74
2024/03/28 06:01:58;;;;;;;8.10;2.90;;;333.70;2329.60;;;;;;5098476;28;20034;-77
2024/03/28 06:04:23;;;;;;;7.70;2.60;;;358.40;2329.60;;;;;;5095556;28;20081;-77
2024/03/28 06:06:49;;;;;;;9.07;2.17;;;333.70;2329.60;;;;;;5093524;28;20533;-77
2024/03/28 06:09:15;;;;;;;6.97;2.53;;;333.70;2329.60;;;;;;5101479;28;20020;-74
2024/03/28 06:11:41;;;;;;;9.85;2.88;;;333.60;2329.60;;;;;;5092338;28;20500;-73
2024/03/28 06:14:08;;;;;;;7.07;2.58;;;333.60;2329.60;;;;;;5067258;28;20048;-72
2024/03/28 06:16:34;;;;;;;11.10;3.30;;;333.60;2329.60;;;;;;5066986;28;20047;-73
2024/03/28 06:19:02;;;;;;;6.80;3.20;;;333.70;2329.60;;;;;;5072876;28;20024;-73
2024/03/28 06:21:28;;;;;;;9.02;2.78;;;333.70;2329.60;;;;;;5069957;28;20108;-73
2024/03/28 06:23:54;;;;;;;11.40;3.08;;;358.50;2329.60;;;;;;5062001;28;20025;-73
2024/03/28 06:26:20;;;;;;;5.10;1.80;;;358.50;2329.60;;;;;;5077318;28;20384;-73
2024/03/28 06:28:47;;;;;;;7.70;2.28;;;358.70;2329.60;;;;;;5062213;28;20032;-73
2024/03/28 06:31:16;;;;;;;9.25;2.10;;;358.80;2329.60;;;;;;5067447;28;20473;-73
2024/03/28 06:33:44;;;;;;;12.75;2.50;;;358.90;2329.60;;;;;;5070967;28;20028;-73
2024/03/28 06:36:11;;;;;;;6.40;2.38;;;359.10;2329.60;;;;;;5052434;28;20477;-72
2024/03/28 06:38:37;;;;;;;3.55;1.45;;;384.00;2329.60;;;;;;5069641;28;20028;-73
2024/03/28 06:41:03;;;;;;;11.45;2.15;;;384.00;2329.60;;;;;;5066162;28;20026;-72
2024/03/28 06:43:29;;;;;;;7.90;1.85;;;384.10;2329.60;;;;;;5065876;28;20033;-74
2024/03/28 06:45:56;;;;;;;6.60;1.88;;;384.20;2329.60;;;;;;5074359;28;20024;-75
2024/03/28 06:48:22;;;;;;;6.90;2.20;;;384.40;2329.60;;;;;;5083413;28;20073;-73
2024/03/28 06:50:49;;;;;;;7.53;3.05;;;384.60;2329.60;;;;;;5069676;28;20484;-73
2024/03/28 06:53:16;;;;;;;6.78;1.60;;;384.90;2329.60;;;;;;5071427;28;20020;-74
2024/03/28 06:55:42;;;;;;;9.27;2.03;;;409.60;2355.20;;;;;;5081402;28;20481;-73
2024/03/28 06:58:08;;;;;;;8.13;2.10;;;409.70;2355.20;;;;;;5073562;28;20108;-73
2024/03/28 07:00:34;;;;;;;7.10;1.42;;;409.90;2355.20;;;;;;5069441;28;20025;-73
2024/03/28 07:03:00;;;;;;;3.38;1.30;;;410.10;2355.20;;;;;;5077072;28;20048;-75
2024/03/28 07:05:27;;;;;;;5.55;1.67;;;410.40;2355.20;;;;;;5070459;28;20059;-73
2024/03/28 07:07:53;;;;;;;4.45;1.38;;;435.20;2355.20;;;;;;5071758;28;20020;-73
2024/03/28 07:10:19;;;;;;;3.53;1.30;;;435.20;2355.20;;;;;;5061526;28;20120;-73
2024/03/28 07:12:45;;;;;;;6.40;1.10;;;435.40;2355.20;;;;;;5075239;28;20044;-74
2024/03/28 07:15:11;;;;;;;7.57;1.40;;;435.50;2355.20;;;;;;5096723;28;20078;-76
2024/03/28 07:17:37;;;;;;;4.45;1.73;;;435.50;2355.20;;;;;;5103636;28;20467;-72
2024/03/28 07:20:03;;;;;;;5.57;1.25;;;435.80;2355.20;;;;;;5087634;28;20372;-72
2024/03/28 07:22:30;;;;;;;11.90;1.77;;;436.00;2355.20;;;;;;5089254;28;20504;-74
2024/03/28 07:24:57;;;;;;;3.45;1.52;;;436.10;2278.40;;;;;;5093040;28;20063;-75
2024/03/28 07:27:27;;;;;;;5.85;1.42;;;436.10;2329.60;;;;;;5101223;28;20024;-74
2024/03/28 07:29:53;;;;;;;7.05;1.88;;;460.90;2278.40;;;;;;5080845;28;20016;-74
2024/03/28 07:32:19;;;;;;;7.05;1.52;;;460.90;2176.00;;;;;;5094505;28;20465;-73
2024/03/28 07:34:45;;;;;;;6.05;1.55;;;461.10;2201.60;;;;;;5097463;28;20026;-74
2024/03/28 07:37:11;;;;;;;5.68;1.75;;;461.20;2380.80;;;;;;5087026;28;20031;-73
2024/03/28 07:39:37;;;;;;;6.57;1.60;;;461.40;2329.60;;;;;;5103217;28;20028;-73
2024/03/28 07:42:03;;;;;;;6.47;2.58;;;461.50;2176.00;;;;;;5099740;28;20020;-73
2024/03/28 07:44:29;;;;;;;10.52;2.50;;;461.60;2099.20;;;;;;5091468;28;20055;-73
2024/03/28 07:46:54;;;;;;;5.13;1.63;;;461.60;2124.80;;;;;;5086552;28;20039;-73
2024/03/28 07:49:21;;;;;;;6.53;1.77;;;461.70;2048.00;;;;;;5095545;28;20023;-74
2024/03/28 07:51:47;;;;;;;8.73;2.22;;;461.70;1894.40;;;;;;5091082;28;20029;-75
2024/03/28 07:54:13;;;;;;;5.63;1.27;;;486.40;1894.40;;;;;;5098012;28;20055;-74
2024/03/28 07:56:39;;;;;;;7.80;1.88;;;486.50;1945.60;;;;;;5098885;28;20024;-74
2024/03/28 07:59:11;;;;;;;9.77;2.78;;;486.80;1945.60;;;;;;5097466;28;20464;-72
2024/03/28 08:01:36;;;;;;;4.07;1.83;;;486.90;1920.00;;;;;;5083459;28;20070;-74
2024/03/28 08:04:03;;;;;;;5.85;1.92;;;486.90;1817.60;;;;;;5084964;28;20036;-74
2024/03/28 08:06:29;;;;;;;3.67;1.08;;;486.80;1766.40;;;;;;5082929;28;20017;-74
2024/03/28 08:08:55;;;;;;;4.93;1.50;;;486.90;1612.80;;;;;;5080993;28;20040;-74
2024/03/28 08:11:21;;;;;;;6.75;1.30;;;487.00;1664.00;;;;;;5095972;28;20492;-74
2024/03/28 08:13:46;;;;;;;6.55;2.55;;;487.10;1664.00;;;;;;5080149;28;20044;-74
2024/03/28 08:16:12;;;;;;;4.03;1.00;;;487.10;1689.60;;;;;;5086358;28;20086;-76
2024/03/28 08:18:38;;;;;;;4.00;1.58;;;487.00;1638.40;;;;;;5096604;28;20085;-74
2024/03/28 08:21:04;;;;;;;3.17;1.25;;;487.30;1638.40;;;;;;5084317;28;20051;-74
2024/03/28 08:23:30;;;;;;;4.38;1.38;;;512.10;1638.40;;;;;;5097961;28;20032;-74
2024/03/28 08:25:56;;;;;;;4.07;1.23;;;512.00;1612.80;;;;;;5093851;28;20384;-75
2024/03/28 08:28:22;;;;;;;5.05;1.35;;;512.00;1612.80;;;;;;5088420;28;20021;-73
2024/03/28 08:30:48;;;;;;;3.47;1.27;;;512.20;1612.80;;;;;;5100013;28;20439;-74
2024/03/28 08:33:14;;;;;;;6.07;1.30;;;512.30;1587.20;;;;;;5074765;28;20025;-74
2024/03/28 08:35:41;;;;;;;5.75;1.50;;;512.50;1612.80;;;;;;5093144;28;20019;-73
2024/03/28 08:38:07;;;;;;;2.78;1.42;;;512.50;1638.40;;;;;;5097995;28;20105;-76
2024/03/28 08:40:34;;;;;;;3.58;1.55;;;512.60;1536.00;;;;;;5103100;28;20512;-75
2024/03/28 08:43:00;;;;;;;3.53;1.02;;;512.30;1510.40;;;;;;5083444;28;20490;-74
2024/03/28 08:45:25;;;;;;;3.22;1.52;;;512.70;1459.20;;;;;;5093228;28;20024;-74
2024/03/28 08:47:53;;;;;;;5.50;1.45;;;512.80;1536.00;;;;;;5090135;28;20028;-74
2024/03/28 08:50:19;;;;;;;3.60;1.08;;;537.80;1587.20;;;;;;5087771;28;20051;-74
2024/03/28 08:52:45;;;;;;;4.68;1.55;;;537.90;1484.80;;;;;;5095083;28;20028;-75
2024/03/28 08:55:11;;;;;;;2.35;1.00;;;512.90;1382.40;;;;;;5092708;28;20035;-73
2024/03/28 08:57:40;;;;;;;6.35;1.60;;;512.90;1382.40;;;;;;5090590;28;20031;-75
2024/03/28 09:00:10;;;;;;;3.85;1.20;;;538.00;1433.60;;;;;;5087926;28;20051;-74
2024/03/28 09:02:38;;;;;;;5.53;2.20;;;538.30;1433.60;;;;;;5083039;28;20543;-74
2024/03/28 09:05:05;;;;;;;4.15;1.50;;;538.50;1408.00;;;;;;5086463;28;20024;-73
2024/03/28 09:07:33;;;;;;;3.33;1.20;;;538.10;1382.40;;;;;;5094184;28;20020;-73
2024/03/28 09:09:59;;;;;;;3.53;0.90;;;538.00;1382.40;;;;;;5085995;28;20054;-75
2024/03/28 09:12:25;;;;;;;2.20;0.80;;;538.40;1433.60;;;;;;5089841;28;20461;-74
2024/03/28 09:14:55;;;;;;;4.00;1.13;;;538.50;1408.00;;;;;;5087476;28;20104;-75
2024/03/28 09:17:21;;;;;;;3.47;1.45;;;538.40;1408.00;;;;;;5091839;28;20031;-75
2024/03/28 09:19:54;;;;;;;2.17;0.95;;;538.30;1356.80;;;;;;5093154;28;20021;-75
2024/03/28 09:22:22;;;;;;;1.85;1.20;;;538.40;1382.40;;;;;;5091541;28;20464;-75
2024/03/28 09:24:48;;;;;;;2.58;1.10;;;563.20;1382.40;;;;;;5093086;28;20070;-74
2024/03/28 09:27:15;;;;;;;1.30;0.95;;;538.50;1356.80;;;;;;5089878;28;20028;-74
2024/03/28 09:29:41;;;;;;;1.38;0.80;;;563.40;1408.00;;;;;;5082378;28;20035;-75
2024/03/28 09:32:07;;;;;;;2.25;0.75;;;563.40;1356.80;;;;;;5086976;28;20078;-75
2024/03/28 09:34:34;;;;;;;1.25;0.65;;;563.70;1356.80;;;;;;5090681;28;20028;-75
2024/03/28 09:37:00;;;;;;;1.65;0.85;;;563.70;1356.80;;;;;;5086104;28;20029;-75
2024/03/28 09:39:26;;;;;;;1.55;0.77;;;563.80;1305.60;;;;;;5079313;28;20016;-75
2024/03/28 09:41:56;;;;;;;1.83;0.80;;;563.70;1305.60;;;;;;5087896;28;20036;-75
2024/03/28 09:44:22;;;;;;;3.08;1.10;;;563.80;1254.40;;;;;;5093380;28;20027;-73
2024/03/28 09:46:48;;;;;;;3.72;1.23;;;564.00;1280.00;;;;;;5087956;28;20024;-73
2024/03/28 09:49:16;;;;;;;1.67;0.90;;;589.00;1305.60;;;;;;5090240;28;20027;-74
2024/03/28 09:51:43;;;;;;;2.30;0.90;;;589.30;1280.00;;;;;;5081457;28;20068;-74
2024/03/28 09:54:10;;;;;;;4.25;0.95;;;564.00;1254.40;;;;;;5086250;28;20515;-73
2024/03/28 09:56:37;;;;;;;3.40;1.00;;;564.10;1228.80;;;;;;5077734;28;20394;-74
2024/03/28 09:59:04;;;;;;;1.60;0.95;;;563.90;1177.60;;;;;;5101450;28;20042;-72
2024/03/28 10:01:31;;;;;;;3.00;0.80;;;564.10;1203.20;;;;;;5089010;28;20047;-74
2024/03/28 10:04:15;;;;;;;1.40;0.80;;;588.80;1228.80;;;;;;5081211;28;20028;-75
2024/03/28 10:06:48;;;;;;;4.18;1.20;;;564.10;1228.80;;;;;;5077880;28;20032;-73
2024/03/28 10:09:17;;;;;;;2.67;1.25;;;589.00;1203.20;;;;;;5103449;28;20019;-74
2024/03/28 10:11:43;;;;;;;1.77;0.98;;;564.10;1228.80;;;;;;5097918;28;20038;-74
2024/03/28 10:14:14;;;;;;;1.60;0.70;;;589.10;1228.80;;;;;;5076851;28;20040;-74
2024/03/28 10:16:42;;;;;;;0.75;0.75;;;564.10;1228.80;;;;;;5073105;28;20076;-77
2024/03/28 10:19:08;;;;;;;1.98;0.77;;;589.00;1254.40;;;;;;5064045;28;20430;-75
2024/03/28 10:21:36;;;;;;;3.13;0.82;;;;;;;;;;5098224;28;20028;-76
2024/03/28 10:24:14;;;;;;;3.03;0.85;;;589.30;1254.40;;;;;;5085963;28;20024;-73
2024/03/28 10:26:40;;;;;;;2.67;1.20;;;588.90;1228.80;;;;;;5104992;28;20385;-75
2024/03/28 10:29:08;;;;;;;1.38;0.77;;;589.30;1228.80;;;;;;5096776;28;20024;-74
2024/03/28 10:31:34;;;;;;;1.38;0.80;;;;;;;;;;5095464;28;20099;-73
2024/03/28 10:34:03;;;;;;;10.23;1.33;;;589.10;1177.60;;;;;;5093882;28;20033;-75
2024/03/28 10:36:29;;;;;;;3.88;1.10;;;589.00;1228.80;;;;;;5100603;28;20063;-75
2024/03/28 10:39:02;;;;;;;3.78;1.00;;;589.20;1254.40;;;;;;5082693;28;20020;-74
2024/03/28 10:41:29;;;;;;;2.70;1.20;;;589.30;1228.80;;;;;;5083252;28;20020;-74
2024/03/28 10:43:59;;;;;;;1.48;0.98;;;588.90;1203.20;;;;;;5077815;28;20028;-76
2024/03/28 10:46:26;;;;;;;3.78;1.23;;;;;;;;;;5088773;28;20111;-74
2024/03/28 10:48:53;;;;;;;1.20;0.88;;;;;;;;;;5079685;28;20091;-75
2024/03/28 10:51:34;;;;;;;2.33;0.88;;;614.40;1203.20;;;;;;5094883;28;20039;-74
2024/03/28 10:54:27;;;;;;;0.68;0.60;;;589.60;1177.60;;;;;;5095991;28;20016;-73
2024/03/28 10:56:57;;;;;;;0.60;0.57;;;614.40;1177.60;;;;;;5090514;28;20035;-75
2024/03/28 10:59:25;;;;;;;1.98;0.88;;;614.40;1152.00;;;;;;5098997;28;20022;-74
2024/03/28 11:01:53;;;;;;;4.35;1.00;;;614.70;1152.00;;;;;;5089252;28;20052;-74
2024/03/28 11:04:21;;;;;;;1.58;0.93;;;614.80;1152.00;;;;;;5091395;28;20161;-73
2024/03/28 11:06:47;;;;;;;3.83;1.10;;;614.70;1177.60;;;;;;5094914;28;20047;-76
2024/03/28 11:09:14;;;;;;;2.17;0.80;;;589.50;1152.00;;;;;;5089205;28;20380;-73
2024/03/28 11:11:40;;;;;;;1.30;0.73;;;614.70;1126.40;;;;;;5093602;28;20035;-78
2024/03/28 11:14:08;;;;;;;4.22;1.23;;;614.50;1152.00;;;;;;5101018;28;20399;-75
2024/03/28 11:16:35;;;;;;;1.30;0.75;;;614.70;1177.60;;;;;;5106415;28;20373;-73
2024/03/28 11:19:01;;;;;;;2.47;1.05;;;614.90;1152.00;;;;;;5098645;28;20095;-74
2024/03/28 11:21:28;;;;;;;2.33;1.00;;;614.70;1126.40;;;;;;5101531;28;20020;-73
2024/03/28 11:23:54;;;;;;;2.88;1.13;;;614.80;1177.60;;;;;;5090871;28;20025;-73
2024/03/28 11:26:25;;;;;;;1.80;0.90;;;614.50;1152.00;;;;;;5102618;28;20057;-74
2024/03/28 11:29:02;;;;;;;2.70;1.30;;;614.80;1152.00;;;;;;5094151;28;20028;-74
2024/03/28 11:31:28;;;;;;;5.85;1.30;;;615.10;1152.00;;;;;;5105578;28;20028;-74
2024/03/28 11:34:04;;;;;;;2.10;0.70;;;615.20;1126.40;;;;;;5092560;28;20031;-73
2024/03/28 11:36:31;;;;;;;2.67;0.68;;;640.00;1100.80;;;;;;5095169;28;20077;-73
2024/03/28 11:38:57;;;;;;;3.33;1.27;;;615.30;1075.20;;;;;;5095118;28;20028;-74
2024/03/28 11:41:24;;;;;;;1.75;1.00;;;614.80;1126.40;;;;;;5089813;28;20705;-77
2024/03/28 11:43:51;;;;;;;1.15;0.82;;;615.20;1152.00;;;;;;5081511;28;20072;-74
2024/03/28 11:46:19;;;;;;;0.98;0.52;;;614.60;1152.00;;;;;;5096478;28;20468;-75
2024/03/28 11:48:45;;;;;;;1.48;0.65;;;614.80;1177.60;;;;;;5103824;28;20093;-75
2024/03/28 11:51:11;;;;;;;2.15;0.80;;;614.80;1126.40;;;;;;5087668;28;20485;-74
2024/03/28 11:53:40;;;;;;;5.43;0.98;;;615.30;1100.80;;;;;;5088167;28;20012;-74
2024/03/28 11:56:07;;;;;;;4.07;0.95;;;615.00;1100.80;;;;;;5092688;28;20058;-75
2024/03/28 11:58:34;;;;;;;0.82;0.47;;;640.00;1075.20;;;;;;5095888;28;20019;-74
2024/03/28 12:01:02;;;;;;;3.00;1.33;;;615.20;1075.20;;;;;;5096790;28;20020;-73
2024/03/28 12:03:28;;;;;;;1.40;0.80;;;640.00;1075.20;;;;;;5090283;28;20027;-74
2024/03/28 12:05:56;;;;;;;1.23;0.90;;;615.30;1100.80;;;;;;5090181;28;20028;-74
2024/03/28 12:08:30;;;;;;;5.22;2.17;;;615.00;1100.80;;;;;;5088892;28;20021;-73
2024/03/28 12:11:00;;;;;;;2.10;0.98;;;640.00;1100.80;;;;;;5098187;28;20039;-74
2024/03/28 12:13:26;;;;;;;4.32;1.15;;;640.10;1100.80;;;;;;5090610;28;20036;-74
2024/03/28 12:15:58;;;;;;;2.05;0.80;;;640.00;1075.20;;;;;;5090588;28;20032;-74
2024/03/28 12:18:25;;;;;;;1.08;0.70;;;640.10;1075.20;;;;;;5080874;28;20024;-74